Terminal Aerodrome Forecast
Issued by NWS

Home | Current Version | Previous Version | Graphics & Text | Print | Product List | Glossary Off
Versions: 1 2 3 4 5 6 7 8 9 10 11 12 13 14 15 16 17

000
FTUS45 KGGW 071700
TAFSDY
TAF
KSDY 071720Z 0718/0818 VRB05KT P6SM SCT070
     FM072300 35013KT P6SM BKN080
      TEMPO 0802/0806 P6SM -TSRA BKN050CB
     FM080600 33008KT P6SM SCT100
     FM081000 VRB05KT P6SM SCT200
      AMD LTD TO CLD VIS AND WIND=

USA.gov is the U.S. government's official web portal to all federal, state and local government web resources and services.